www.hirschberg-wetter.de
Wetterdaten: aktuell Freitag, 20.09.2019 23:00
Datum Zeit Temperatur Luftfeuchte Luftdruck Niederschlag Wind Windrichtung Windrichtung Sonnenschein Helligkeit Niederschlag Taupunkt Windchill
20.09.2019 23:00 4,4 C 94 % 1027 hPa 0,0 l/m 2,5 km/h (1 Bft) NO 45 0 min 0 lux 0 min 3,5 C 4,4 C
20.09.2019 22:00 5,2 C 94 % 1027 hPa 0,0 l/m 1,4 km/h (1 Bft) N 0 0 min 0 lux 0 min 4,3 C 5,2 C
20.09.2019 21:00 6,6 C 89 % 1027 hPa 0,0 l/m 0,0 km/h (0 Bft) N 0 0 min 0 lux 0 min 4,9 C 6,6 C
20.09.2019 20:00 8,9 C 81 % 1027 hPa 0,0 l/m 2,5 km/h (1 Bft) NW 320 0 min 0 lux 0 min 5,8 C 8,9 C
20.09.2019 19:00 12,7 C 59 % 1027 hPa 0,0 l/m 2,5 km/h (1 Bft) NO 45 0 min 1,51 klux 0 min 4,9 C 12,7 C
20.09.2019 18:00 14,7 C 49 % 1027 hPa 0,0 l/m 5,4 km/h (1 Bft) NO 45 41 min 12,6 klux 0 min 4,1 C 14,7 C
20.09.2019 17:00 15,1 C 45 % 1027 hPa 0,0 l/m 8,6 km/h (2 Bft) N 0 60 min 37,4 klux 0 min 3,3 C 15,1 C
20.09.2019 15:52 16,1 C 44 % 1027 hPa 0,0 l/m 6,5 km/h (2 Bft) O-SO 110 60 min 77,2 klux 0 min 3,8 C 16,1 C
20.09.2019 14:51 15,4 C 44 % 1028 hPa 0,0 l/m 8,3 km/h (2 Bft) O 80 59 min 74,6 klux 0 min 3,2 C 15,4 C
20.09.2019 13:51 14,3 C 50 % 1028 hPa 0,0 l/m 9,0 km/h (2 Bft) N-NO 25 56 min 56,8 klux 0 min 4,0 C 14,3 C
20.09.2019 12:51 15,0 C 48 % 1028 hPa 0,0 l/m 7,2 km/h (2 Bft) N-NO 15 60 min 76,1 klux 0 min 4,1 C 15,0 C
20.09.2019 11:51 13,1 C 56 % 1029 hPa 0,0 l/m 9,0 km/h (2 Bft) N-NO 30 60 min 67,7 klux 0 min 4,5 C 13,1 C
20.09.2019 10:51 13,6 C 57 % 1029 hPa 0,0 l/m 4,3 km/h (1 Bft) W 265 60 min 64,0 klux 0 min 5,2 C 13,6 C
20.09.2019 09:50 8,3 C 77 % 1029 hPa 0,0 l/m 4,3 km/h (1 Bft) SO 140 43 min 46,0 klux 0 min 4,5 C 8,3 C
20.09.2019 08:50 4,1 C 87 % 1029 hPa 0,0 l/m 4,0 km/h (1 Bft) SO 145 30 min 18,5 klux 0 min 2,1 C 4,1 C
20.09.2019 07:50 1,0 C 95 % 1029 hPa 0,0 l/m 1,8 km/h (1 Bft) O 100 2 min 6,61 klux 0 min 0,3 C 1,0 C
20.09.2019 06:50 -0,2 C 96 % 1029 hPa 0,0 l/m 2,5 km/h (1 Bft) O-SO 120 0 min 517 lux 0 min -0,8 C -0,2 C
20.09.2019 05:50 0,2 C 97 % 1029 hPa 0,0 l/m 0,0 km/h (0 Bft) N 0 0 min 0 lux 0 min -0,2 C 0,2 C
20.09.2019 04:50 0,5 C 96 % 1029 hPa 0,0 l/m 1,4 km/h (1 Bft) N 0 0 min 0 lux 0 min -0,1 C 0,5 C
20.09.2019 03:50 0,7 C 96 % 1029 hPa 0,0 l/m 1,1 km/h (1 Bft) S-SW 195 0 min 0 lux 0 min 0,1 C 0,7 C
20.09.2019 02:50 0,8 C 96 % 1029 hPa 0,0 l/m 1,4 km/h (1 Bft) N 0 0 min 0 lux 0 min 0,2 C 0,8 C
20.09.2019 01:50 1,3 C 96 % 1030 hPa 0,0 l/m 1,8 km/h (1 Bft) SO 145 0 min 0 lux 0 min 0,7 C 1,3 C
20.09.2019 00:50 1,7 C 96 % 1030 hPa 0,0 l/m 2,5 km/h (1 Bft) NO 45 0 min 0 lux 0 min 1,1 C 1,7 C
20.09.2019 00:01 2,0 C 95 % 1030 hPa 0,0 l/m 2,9 km/h (1 Bft) NO 40 0 min 0 lux 0 min 1,3 C 2,0 C
_ Min-Zeit 06:49 15:14 18:12 - 00:46 - - - - - 06:30 06:49
Minimum _ -0,2 C 39 % 1026 hPa - 0,0 km/h (0 Bft) - - - - - -0,8 C -0,2 C
_ Max-Zeit 15:13 00:35 00:01 00:01 13:05 - - 16:30 13:05 00:01 11:20 15:13
Maximum _ 16,7 C 98 % 1030 hPa 0,0 l/m 17,6 km/h
N-NO (3 Bft)
- - 9 min 105 klux 0 min 6,4 C 16,7 C
Durchschnitt _ 7,5 C 76 % 1028 hPa #0,0 l/m 4,5 km/h (1 Bft) NO - #9:01 h 24,0 klux #0 min. 2,7 C 7,4 C
Jens Knrnschild